sensor_id;sensor_type;location;lat;lon;timestamp;P1;durP1;ratioP1;P2;durP2;ratioP2
1308;SDS011;647;48.840;9.314;2022-08-25T00:01:14;60.47;;;4.77;;
1308;SDS011;647;48.840;9.314;2022-08-25T00:03:42;60.80;;;4.37;;
1308;SDS011;647;48.840;9.314;2022-08-25T00:06:10;59.50;;;3.80;;
1308;SDS011;647;48.840;9.314;2022-08-25T00:08:37;60.87;;;4.40;;
1308;SDS011;647;48.840;9.314;2022-08-25T00:11:05;60.77;;;4.63;;
1308;SDS011;647;48.840;9.314;2022-08-25T00:13:32;60.30;;;4.20;;
1308;SDS011;647;48.840;9.314;2022-08-25T00:15:59;60.70;;;4.57;;
1308;SDS011;647;48.840;9.314;2022-08-25T00:18:28;58.90;;;3.57;;
1308;SDS011;647;48.840;9.314;2022-08-25T00:20:55;58.97;;;3.50;;
1308;SDS011;647;48.840;9.314;2022-08-25T00:23:22;60.27;;;3.70;;
1308;SDS011;647;48.840;9.314;2022-08-25T00:25:49;60.17;;;4.17;;
1308;SDS011;647;48.840;9.314;2022-08-25T00:28:17;59.50;;;3.80;;
1308;SDS011;647;48.840;9.314;2022-08-25T00:30:44;60.40;;;4.93;;
1308;SDS011;647;48.840;9.314;2022-08-25T00:33:12;60.07;;;4.17;;
1308;SDS011;647;48.840;9.314;2022-08-25T00:35:41;59.77;;;4.07;;
1308;SDS011;647;48.840;9.314;2022-08-25T00:38:09;60.90;;;4.10;;
1308;SDS011;647;48.840;9.314;2022-08-25T00:40:37;59.47;;;3.83;;
1308;SDS011;647;48.840;9.314;2022-08-25T00:43:05;60.10;;;4.30;;
1308;SDS011;647;48.840;9.314;2022-08-25T00:45:32;60.73;;;4.27;;
1308;SDS011;647;48.840;9.314;2022-08-25T00:47:59;59.17;;;3.30;;
1308;SDS011;647;48.840;9.314;2022-08-25T00:50:27;59.60;;;3.90;;
1308;SDS011;647;48.840;9.314;2022-08-25T00:52:56;59.70;;;3.97;;
1308;SDS011;647;48.840;9.314;2022-08-25T00:55:26;66.10;;;4.03;;
1308;SDS011;647;48.840;9.314;2022-08-25T00:57:55;59.33;;;3.67;;
1308;SDS011;647;48.840;9.314;2022-08-25T01:00:23;61.20;;;4.20;;
1308;SDS011;647;48.840;9.314;2022-08-25T01:02:51;60.63;;;4.43;;
1308;SDS011;647;48.840;9.314;2022-08-25T01:05:20;60.07;;;4.27;;
1308;SDS011;647;48.840;9.314;2022-08-25T01:07:48;59.70;;;4.00;;
1308;SDS011;647;48.840;9.314;2022-08-25T01:10:17;60.20;;;4.07;;
1308;SDS011;647;48.840;9.314;2022-08-25T01:12:44;59.40;;;4.23;;
1308;SDS011;647;48.840;9.314;2022-08-25T01:15:14;59.70;;;4.00;;
1308;SDS011;647;48.840;9.314;2022-08-25T01:17:44;61.00;;;4.90;;
1308;SDS011;647;48.840;9.314;2022-08-25T01:20:12;61.60;;;5.10;;
1308;SDS011;647;48.840;9.314;2022-08-25T01:22:40;61.97;;;4.70;;
1308;SDS011;647;48.840;9.314;2022-08-25T01:25:24;59.70;;;3.93;;
1308;SDS011;647;48.840;9.314;2022-08-25T01:27:53;60.33;;;4.30;;
1308;SDS011;647;48.840;9.314;2022-08-25T01:30:20;59.30;;;3.77;;
1308;SDS011;647;48.840;9.314;2022-08-25T01:32:47;61.07;;;5.00;;
1308;SDS011;647;48.840;9.314;2022-08-25T01:35:15;60.67;;;4.20;;
1308;SDS011;647;48.840;9.314;2022-08-25T01:37:44;60.73;;;4.90;;
1308;SDS011;647;48.840;9.314;2022-08-25T01:40:11;62.80;;;4.70;;
1308;SDS011;647;48.840;9.314;2022-08-25T01:42:41;59.93;;;4.23;;
1308;SDS011;647;48.840;9.314;2022-08-25T01:45:12;59.50;;;4.00;;
1308;SDS011;647;48.840;9.314;2022-08-25T01:47:39;59.40;;;3.90;;
1308;SDS011;647;48.840;9.314;2022-08-25T01:50:07;60.47;;;4.30;;
1308;SDS011;647;48.840;9.314;2022-08-25T01:52:36;59.87;;;4.67;;
1308;SDS011;647;48.840;9.314;2022-08-25T01:55:06;59.60;;;3.60;;
1308;SDS011;647;48.840;9.314;2022-08-25T01:57:33;60.20;;;4.50;;
1308;SDS011;647;48.840;9.314;2022-08-25T02:00:00;61.30;;;4.50;;
1308;SDS011;647;48.840;9.314;2022-08-25T02:02:27;60.23;;;5.00;;
1308;SDS011;647;48.840;9.314;2022-08-25T02:04:54;60.20;;;4.90;;
1308;SDS011;647;48.840;9.314;2022-08-25T02:07:21;60.47;;;4.20;;
1308;SDS011;647;48.840;9.314;2022-08-25T02:09:48;60.07;;;4.40;;
1308;SDS011;647;48.840;9.314;2022-08-25T02:12:17;61.50;;;4.00;;
1308;SDS011;647;48.840;9.314;2022-08-25T02:14:44;62.60;;;5.30;;
1308;SDS011;647;48.840;9.314;2022-08-25T02:17:12;60.57;;;4.37;;
1308;SDS011;647;48.840;9.314;2022-08-25T02:19:39;59.67;;;3.50;;
1308;SDS011;647;48.840;9.314;2022-08-25T02:22:06;59.60;;;4.00;;
1308;SDS011;647;48.840;9.314;2022-08-25T02:24:33;60.27;;;4.17;;
1308;SDS011;647;48.840;9.314;2022-08-25T02:27:00;60.17;;;4.17;;
1308;SDS011;647;48.840;9.314;2022-08-25T02:29:29;59.30;;;4.37;;
1308;SDS011;647;48.840;9.314;2022-08-25T02:31:56;60.53;;;4.20;;
1308;SDS011;647;48.840;9.314;2022-08-25T02:34:23;60.20;;;3.90;;
1308;SDS011;647;48.840;9.314;2022-08-25T02:36:51;62.97;;;4.53;;
1308;SDS011;647;48.840;9.314;2022-08-25T02:39:18;59.77;;;3.83;;
1308;SDS011;647;48.840;9.314;2022-08-25T02:41:45;59.90;;;4.50;;
1308;SDS011;647;48.840;9.314;2022-08-25T02:44:12;60.00;;;4.10;;
1308;SDS011;647;48.840;9.314;2022-08-25T02:46:41;61.80;;;4.17;;
1308;SDS011;647;48.840;9.314;2022-08-25T02:49:08;60.07;;;4.57;;
1308;SDS011;647;48.840;9.314;2022-08-25T02:51:35;61.20;;;5.13;;
1308;SDS011;647;48.840;9.314;2022-08-25T02:54:03;66.40;;;4.27;;
1308;SDS011;647;48.840;9.314;2022-08-25T02:56:31;66.70;;;4.70;;
1308;SDS011;647;48.840;9.314;2022-08-25T02:58:58;61.13;;;4.37;;
1308;SDS011;647;48.840;9.314;2022-08-25T03:01:26;59.73;;;4.30;;
1308;SDS011;647;48.840;9.314;2022-08-25T03:03:55;60.10;;;4.20;;
1308;SDS011;647;48.840;9.314;2022-08-25T03:06:22;60.37;;;4.30;;
1308;SDS011;647;48.840;9.314;2022-08-25T03:08:49;59.70;;;4.20;;
1308;SDS011;647;48.840;9.314;2022-08-25T03:11:17;60.00;;;4.67;;
1308;SDS011;647;48.840;9.314;2022-08-25T03:13:44;59.83;;;4.60;;
1308;SDS011;647;48.840;9.314;2022-08-25T03:16:14;59.57;;;4.00;;
1308;SDS011;647;48.840;9.314;2022-08-25T03:18:41;59.10;;;3.57;;
1308;SDS011;647;48.840;9.314;2022-08-25T03:21:09;60.20;;;3.93;;
1308;SDS011;647;48.840;9.314;2022-08-25T03:23:37;60.03;;;3.60;;
1308;SDS011;647;48.840;9.314;2022-08-25T03:26:06;59.63;;;4.10;;
1308;SDS011;647;48.840;9.314;2022-08-25T03:28:51;59.87;;;4.53;;
1308;SDS011;647;48.840;9.314;2022-08-25T03:31:19;60.70;;;4.03;;
1308;SDS011;647;48.840;9.314;2022-08-25T03:33:46;60.80;;;5.10;;
1308;SDS011;647;48.840;9.314;2022-08-25T03:36:15;60.80;;;4.63;;
1308;SDS011;647;48.840;9.314;2022-08-25T03:38:42;61.57;;;4.43;;
1308;SDS011;647;48.840;9.314;2022-08-25T03:41:13;63.40;;;5.70;;
1308;SDS011;647;48.840;9.314;2022-08-25T03:43:41;61.03;;;4.60;;
1308;SDS011;647;48.840;9.314;2022-08-25T03:46:09;61.30;;;5.00;;
1308;SDS011;647;48.840;9.314;2022-08-25T03:48:41;61.47;;;5.00;;
1308;SDS011;647;48.840;9.314;2022-08-25T03:51:08;60.23;;;4.83;;
1308;SDS011;647;48.840;9.314;2022-08-25T03:53:37;60.77;;;5.03;;
1308;SDS011;647;48.840;9.314;2022-08-25T03:56:04;60.23;;;4.47;;
1308;SDS011;647;48.840;9.314;2022-08-25T03:58:31;59.87;;;4.30;;
1308;SDS011;647;48.840;9.314;2022-08-25T04:00:58;60.07;;;4.53;;
1308;SDS011;647;48.840;9.314;2022-08-25T04:03:26;59.80;;;4.77;;
1308;SDS011;647;48.840;9.314;2022-08-25T04:05:53;59.70;;;4.40;;
1308;SDS011;647;48.840;9.314;2022-08-25T04:08:20;60.37;;;4.30;;
1308;SDS011;647;48.840;9.314;2022-08-25T04:10:48;60.37;;;4.50;;
1308;SDS011;647;48.840;9.314;2022-08-25T04:13:16;60.90;;;4.80;;
1308;SDS011;647;48.840;9.314;2022-08-25T04:15:43;60.77;;;4.77;;
1308;SDS011;647;48.840;9.314;2022-08-25T04:18:10;60.70;;;4.63;;
1308;SDS011;647;48.840;9.314;2022-08-25T04:20:38;60.80;;;4.43;;
1308;SDS011;647;48.840;9.314;2022-08-25T04:23:06;62.13;;;5.67;;
1308;SDS011;647;48.840;9.314;2022-08-25T04:25:33;60.43;;;4.83;;
1308;SDS011;647;48.840;9.314;2022-08-25T04:28:02;59.90;;;4.23;;
1308;SDS011;647;48.840;9.314;2022-08-25T04:30:29;60.70;;;4.20;;
1308;SDS011;647;48.840;9.314;2022-08-25T04:32:56;60.67;;;4.40;;
1308;SDS011;647;48.840;9.314;2022-08-25T04:35:23;62.27;;;5.17;;
1308;SDS011;647;48.840;9.314;2022-08-25T04:37:50;61.77;;;4.57;;
1308;SDS011;647;48.840;9.314;2022-08-25T04:40:17;60.97;;;5.10;;
1308;SDS011;647;48.840;9.314;2022-08-25T04:42:45;60.37;;;4.53;;
1308;SDS011;647;48.840;9.314;2022-08-25T04:45:13;60.30;;;4.30;;
1308;SDS011;647;48.840;9.314;2022-08-25T04:47:40;59.80;;;4.50;;
1308;SDS011;647;48.840;9.314;2022-08-25T04:50:08;61.30;;;4.53;;
1308;SDS011;647;48.840;9.314;2022-08-25T04:52:35;62.30;;;4.97;;
1308;SDS011;647;48.840;9.314;2022-08-25T04:55:02;60.33;;;5.03;;
1308;SDS011;647;48.840;9.314;2022-08-25T04:57:30;61.17;;;4.67;;
1308;SDS011;647;48.840;9.314;2022-08-25T04:59:57;60.70;;;4.80;;
1308;SDS011;647;48.840;9.314;2022-08-25T05:02:25;60.20;;;4.90;;
1308;SDS011;647;48.840;9.314;2022-08-25T05:04:53;61.77;;;5.03;;
1308;SDS011;647;48.840;9.314;2022-08-25T05:07:20;60.07;;;4.40;;
1308;SDS011;647;48.840;9.314;2022-08-25T05:09:47;61.43;;;4.90;;
1308;SDS011;647;48.840;9.314;2022-08-25T05:12:14;61.03;;;5.10;;
1308;SDS011;647;48.840;9.314;2022-08-25T05:14:41;63.10;;;4.67;;
1308;SDS011;647;48.840;9.314;2022-08-25T05:17:09;60.20;;;4.10;;
1308;SDS011;647;48.840;9.314;2022-08-25T05:19:37;59.60;;;3.93;;
1308;SDS011;647;48.840;9.314;2022-08-25T05:22:04;61.00;;;5.30;;
1308;SDS011;647;48.840;9.314;2022-08-25T05:24:31;61.70;;;4.90;;
1308;SDS011;647;48.840;9.314;2022-08-25T05:26:58;61.10;;;4.60;;
1308;SDS011;647;48.840;9.314;2022-08-25T05:29:27;60.80;;;4.53;;
1308;SDS011;647;48.840;9.314;2022-08-25T05:31:54;61.60;;;4.70;;
1308;SDS011;647;48.840;9.314;2022-08-25T05:34:21;60.73;;;4.53;;
1308;SDS011;647;48.840;9.314;2022-08-25T05:36:50;61.00;;;4.50;;
1308;SDS011;647;48.840;9.314;2022-08-25T05:39:18;60.43;;;4.73;;
1308;SDS011;647;48.840;9.314;2022-08-25T05:41:45;60.47;;;4.40;;
1308;SDS011;647;48.840;9.314;2022-08-25T05:44:13;61.20;;;4.57;;
1308;SDS011;647;48.840;9.314;2022-08-25T05:46:41;59.73;;;4.50;;
1308;SDS011;647;48.840;9.314;2022-08-25T05:49:08;60.90;;;5.40;;
1308;SDS011;647;48.840;9.314;2022-08-25T05:51:35;59.83;;;4.27;;
1308;SDS011;647;48.840;9.314;2022-08-25T05:54:04;60.83;;;5.23;;
1308;SDS011;647;48.840;9.314;2022-08-25T05:56:31;61.03;;;4.83;;
1308;SDS011;647;48.840;9.314;2022-08-25T05:58:58;61.10;;;4.03;;
1308;SDS011;647;48.840;9.314;2022-08-25T06:01:26;61.40;;;4.23;;
1308;SDS011;647;48.840;9.314;2022-08-25T06:04:11;60.40;;;4.57;;
1308;SDS011;647;48.840;9.314;2022-08-25T06:06:39;59.70;;;4.50;;
1308;SDS011;647;48.840;9.314;2022-08-25T06:09:07;60.33;;;3.87;;
1308;SDS011;647;48.840;9.314;2022-08-25T06:11:35;59.70;;;4.57;;
1308;SDS011;647;48.840;9.314;2022-08-25T06:14:03;60.87;;;4.87;;
1308;SDS011;647;48.840;9.314;2022-08-25T06:16:31;61.40;;;4.80;;
1308;SDS011;647;48.840;9.314;2022-08-25T06:18:58;59.33;;;3.90;;
1308;SDS011;647;48.840;9.314;2022-08-25T06:21:25;60.00;;;5.07;;
1308;SDS011;647;48.840;9.314;2022-08-25T06:23:53;60.33;;;4.40;;
1308;SDS011;647;48.840;9.314;2022-08-25T06:26:21;60.90;;;4.90;;
1308;SDS011;647;48.840;9.314;2022-08-25T06:28:48;60.57;;;4.60;;
1308;SDS011;647;48.840;9.314;2022-08-25T06:31:16;60.23;;;4.67;;
1308;SDS011;647;48.840;9.314;2022-08-25T06:33:43;62.23;;;4.87;;
1308;SDS011;647;48.840;9.314;2022-08-25T06:36:11;59.47;;;4.30;;
1308;SDS011;647;48.840;9.314;2022-08-25T06:38:38;60.27;;;4.93;;
1308;SDS011;647;48.840;9.314;2022-08-25T06:41:05;59.67;;;4.30;;
1308;SDS011;647;48.840;9.314;2022-08-25T06:43:36;60.10;;;4.77;;
1308;SDS011;647;48.840;9.314;2022-08-25T06:46:07;61.67;;;6.20;;
1308;SDS011;647;48.840;9.314;2022-08-25T06:48:34;59.90;;;4.40;;
1308;SDS011;647;48.840;9.314;2022-08-25T06:51:03;61.50;;;5.17;;
1308;SDS011;647;48.840;9.314;2022-08-25T06:53:30;61.40;;;4.77;;
1308;SDS011;647;48.840;9.314;2022-08-25T06:55:57;60.00;;;4.90;;
1308;SDS011;647;48.840;9.314;2022-08-25T06:58:25;60.80;;;4.90;;
1308;SDS011;647;48.840;9.314;2022-08-25T07:00:53;59.87;;;4.23;;
1308;SDS011;647;48.840;9.314;2022-08-25T07:03:20;60.83;;;5.03;;
1308;SDS011;647;48.840;9.314;2022-08-25T07:05:51;60.37;;;4.87;;
1308;SDS011;647;48.840;9.314;2022-08-25T07:08:18;61.80;;;4.93;;
1308;SDS011;647;48.840;9.314;2022-08-25T07:10:45;63.40;;;5.00;;
1308;SDS011;647;48.840;9.314;2022-08-25T07:13:12;60.50;;;4.30;;
1308;SDS011;647;48.840;9.314;2022-08-25T07:15:40;59.40;;;4.30;;
1308;SDS011;647;48.840;9.314;2022-08-25T07:18:09;61.47;;;5.50;;
1308;SDS011;647;48.840;9.314;2022-08-25T07:20:36;60.97;;;4.80;;
1308;SDS011;647;48.840;9.314;2022-08-25T07:23:04;60.27;;;4.60;;
1308;SDS011;647;48.840;9.314;2022-08-25T07:25:31;62.57;;;5.87;;
1308;SDS011;647;48.840;9.314;2022-08-25T07:27:58;59.37;;;4.20;;
1308;SDS011;647;48.840;9.314;2022-08-25T07:30:25;61.03;;;4.90;;
1308;SDS011;647;48.840;9.314;2022-08-25T07:32:53;61.60;;;4.80;;
1308;SDS011;647;48.840;9.314;2022-08-25T07:35:21;59.77;;;4.73;;
1308;SDS011;647;48.840;9.314;2022-08-25T07:37:49;59.97;;;4.30;;
1308;SDS011;647;48.840;9.314;2022-08-25T07:40:18;61.90;;;5.50;;
1308;SDS011;647;48.840;9.314;2022-08-25T07:42:47;60.07;;;4.37;;
1308;SDS011;647;48.840;9.314;2022-08-25T07:45:14;60.17;;;5.17;;
1308;SDS011;647;48.840;9.314;2022-08-25T07:47:42;61.20;;;4.67;;
1308;SDS011;647;48.840;9.314;2022-08-25T07:50:09;61.67;;;5.03;;
1308;SDS011;647;48.840;9.314;2022-08-25T07:52:38;61.97;;;4.27;;
1308;SDS011;647;48.840;9.314;2022-08-25T07:55:06;59.90;;;4.33;;
1308;SDS011;647;48.840;9.314;2022-08-25T07:57:33;60.13;;;4.20;;
1308;SDS011;647;48.840;9.314;2022-08-25T08:00:00;60.20;;;5.27;;
1308;SDS011;647;48.840;9.314;2022-08-25T08:02:28;60.87;;;4.40;;
1308;SDS011;647;48.840;9.314;2022-08-25T08:04:55;61.00;;;4.23;;
1308;SDS011;647;48.840;9.314;2022-08-25T08:07:23;59.87;;;4.03;;
1308;SDS011;647;48.840;9.314;2022-08-25T08:09:52;62.60;;;4.43;;
1308;SDS011;647;48.840;9.314;2022-08-25T08:12:20;58.90;;;3.93;;
1308;SDS011;647;48.840;9.314;2022-08-25T08:14:47;59.40;;;3.60;;
1308;SDS011;647;48.840;9.314;2022-08-25T08:17:14;59.87;;;4.10;;
1308;SDS011;647;48.840;9.314;2022-08-25T08:19:42;60.33;;;3.97;;
1308;SDS011;647;48.840;9.314;2022-08-25T08:22:09;60.43;;;4.40;;
1308;SDS011;647;48.840;9.314;2022-08-25T08:24:39;59.37;;;4.37;;
1308;SDS011;647;48.840;9.314;2022-08-25T08:27:10;59.80;;;4.27;;
1308;SDS011;647;48.840;9.314;2022-08-25T08:29:37;61.43;;;4.80;;
1308;SDS011;647;48.840;9.314;2022-08-25T08:32:06;60.03;;;4.90;;
1308;SDS011;647;48.840;9.314;2022-08-25T08:34:33;60.10;;;4.10;;
1308;SDS011;647;48.840;9.314;2022-08-25T08:37:00;60.60;;;4.67;;
1308;SDS011;647;48.840;9.314;2022-08-25T08:39:28;60.27;;;4.53;;
1308;SDS011;647;48.840;9.314;2022-08-25T08:41:58;60.30;;;4.00;;
1308;SDS011;647;48.840;9.314;2022-08-25T08:44:47;59.90;;;4.53;;
1308;SDS011;647;48.840;9.314;2022-08-25T08:47:20;59.80;;;4.20;;
1308;SDS011;647;48.840;9.314;2022-08-25T08:49:54;59.07;;;4.20;;
1308;SDS011;647;48.840;9.314;2022-08-25T08:52:28;59.50;;;3.93;;
1308;SDS011;647;48.840;9.314;2022-08-25T08:55:00;60.20;;;4.53;;
1308;SDS011;647;48.840;9.314;2022-08-25T08:57:28;60.17;;;4.07;;
1308;SDS011;647;48.840;9.314;2022-08-25T08:59:59;60.90;;;4.10;;
1308;SDS011;647;48.840;9.314;2022-08-25T09:02:27;60.17;;;3.93;;
1308;SDS011;647;48.840;9.314;2022-08-25T09:04:58;60.17;;;3.70;;
1308;SDS011;647;48.840;9.314;2022-08-25T09:07:28;59.30;;;3.80;;
1308;SDS011;647;48.840;9.314;2022-08-25T09:09:56;61.27;;;3.87;;
1308;SDS011;647;48.840;9.314;2022-08-25T09:12:25;59.27;;;4.20;;
1308;SDS011;647;48.840;9.314;2022-08-25T09:14:59;59.00;;;4.00;;
1308;SDS011;647;48.840;9.314;2022-08-25T09:17:37;60.10;;;4.27;;
1308;SDS011;647;48.840;9.314;2022-08-25T09:20:10;60.43;;;5.50;;
1308;SDS011;647;48.840;9.314;2022-08-25T09:22:42;59.50;;;3.80;;
1308;SDS011;647;48.840;9.314;2022-08-25T09:25:16;59.20;;;3.70;;
1308;SDS011;647;48.840;9.314;2022-08-25T09:27:46;61.07;;;4.27;;
1308;SDS011;647;48.840;9.314;2022-08-25T09:30:17;59.97;;;4.10;;
1308;SDS011;647;48.840;9.314;2022-08-25T09:32:45;59.50;;;3.60;;
1308;SDS011;647;48.840;9.314;2022-08-25T09:35:16;59.87;;;3.60;;
1308;SDS011;647;48.840;9.314;2022-08-25T09:37:53;59.90;;;4.07;;
1308;SDS011;647;48.840;9.314;2022-08-25T09:40:21;60.10;;;4.50;;
1308;SDS011;647;48.840;9.314;2022-08-25T09:42:50;60.00;;;4.13;;
1308;SDS011;647;48.840;9.314;2022-08-25T09:45:30;58.97;;;3.43;;
1308;SDS011;647;48.840;9.314;2022-08-25T09:47:58;60.97;;;4.20;;
1308;SDS011;647;48.840;9.314;2022-08-25T09:50:29;58.80;;;3.57;;
1308;SDS011;647;48.840;9.314;2022-08-25T09:53:02;60.77;;;3.87;;
1308;SDS011;647;48.840;9.314;2022-08-25T09:55:36;58.67;;;3.13;;
1308;SDS011;647;48.840;9.314;2022-08-25T09:58:12;60.70;;;3.60;;
1308;SDS011;647;48.840;9.314;2022-08-25T10:00:41;59.60;;;4.00;;
1308;SDS011;647;48.840;9.314;2022-08-25T10:03:09;58.23;;;3.20;;
1308;SDS011;647;48.840;9.314;2022-08-25T10:05:38;59.90;;;3.83;;
1308;SDS011;647;48.840;9.314;2022-08-25T10:08:10;62.70;;;3.53;;
1308;SDS011;647;48.840;9.314;2022-08-25T10:10:39;58.97;;;3.40;;
1308;SDS011;647;48.840;9.314;2022-08-25T10:13:11;58.40;;;3.40;;
1308;SDS011;647;48.840;9.314;2022-08-25T10:15:39;58.10;;;2.97;;
1308;SDS011;647;48.840;9.314;2022-08-25T10:18:18;58.33;;;3.07;;
1308;SDS011;647;48.840;9.314;2022-08-25T10:20:59;57.87;;;3.00;;
1308;SDS011;647;48.840;9.314;2022-08-25T10:23:26;58.43;;;3.27;;
1308;SDS011;647;48.840;9.314;2022-08-25T10:25:54;57.90;;;2.73;;
1308;SDS011;647;48.840;9.314;2022-08-25T10:28:24;60.40;;;3.53;;
1308;SDS011;647;48.840;9.314;2022-08-25T10:30:54;57.93;;;2.80;;
1308;SDS011;647;48.840;9.314;2022-08-25T10:33:27;57.80;;;3.43;;
1308;SDS011;647;48.840;9.314;2022-08-25T10:35:59;57.80;;;3.17;;
1308;SDS011;647;48.840;9.314;2022-08-25T10:38:33;58.27;;;2.97;;
1308;SDS011;647;48.840;9.314;2022-08-25T10:41:03;60.20;;;3.57;;
1308;SDS011;647;48.840;9.314;2022-08-25T10:43:37;58.57;;;3.50;;
1308;SDS011;647;48.840;9.314;2022-08-25T10:46:10;57.97;;;3.10;;
1308;SDS011;647;48.840;9.314;2022-08-25T10:48:49;57.10;;;2.30;;
1308;SDS011;647;48.840;9.314;2022-08-25T10:54:07;58.13;;;3.30;;
1308;SDS011;647;48.840;9.314;2022-08-25T10:56:39;58.80;;;3.10;;
1308;SDS011;647;48.840;9.314;2022-08-25T10:59:15;56.87;;;2.40;;
1308;SDS011;647;48.840;9.314;2022-08-25T11:01:50;57.27;;;2.90;;
1308;SDS011;647;48.840;9.314;2022-08-25T11:04:21;57.30;;;2.90;;
1308;SDS011;647;48.840;9.314;2022-08-25T11:06:51;57.30;;;2.83;;
1308;SDS011;647;48.840;9.314;2022-08-25T11:09:22;57.57;;;3.40;;
1308;SDS011;647;48.840;9.314;2022-08-25T11:11:52;57.37;;;3.47;;
1308;SDS011;647;48.840;9.314;2022-08-25T11:14:22;57.27;;;3.30;;
1308;SDS011;647;48.840;9.314;2022-08-25T11:16:51;57.30;;;2.70;;
1308;SDS011;647;48.840;9.314;2022-08-25T11:19:22;56.97;;;2.70;;
1308;SDS011;647;48.840;9.314;2022-08-25T11:21:52;57.47;;;3.23;;
1308;SDS011;647;48.840;9.314;2022-08-25T11:27:08;59.77;;;2.60;;
1308;SDS011;647;48.840;9.314;2022-08-25T11:29:37;56.77;;;2.63;;
1308;SDS011;647;48.840;9.314;2022-08-25T11:32:06;57.37;;;3.07;;
1308;SDS011;647;48.840;9.314;2022-08-25T11:34:35;57.63;;;2.70;;
1308;SDS011;647;48.840;9.314;2022-08-25T11:37:04;57.80;;;3.40;;
1308;SDS011;647;48.840;9.314;2022-08-25T11:39:40;57.87;;;2.80;;
1308;SDS011;647;48.840;9.314;2022-08-25T11:42:13;56.87;;;2.80;;
1308;SDS011;647;48.840;9.314;2022-08-25T11:44:46;57.47;;;3.13;;
1308;SDS011;647;48.840;9.314;2022-08-25T11:47:22;57.57;;;2.90;;
1308;SDS011;647;48.840;9.314;2022-08-25T11:49:58;57.57;;;3.10;;
1308;SDS011;647;48.840;9.314;2022-08-25T11:52:45;57.60;;;3.07;;
1308;SDS011;647;48.840;9.314;2022-08-25T11:55:14;57.60;;;3.10;;
1308;SDS011;647;48.840;9.314;2022-08-25T11:57:43;57.50;;;2.97;;
1308;SDS011;647;48.840;9.314;2022-08-25T12:00:37;57.30;;;3.00;;
1308;SDS011;647;48.840;9.314;2022-08-25T12:03:00;57.70;;;2.73;;
1308;SDS011;647;48.840;9.314;2022-08-25T12:05:50;57.90;;;3.20;;
1308;SDS011;647;48.840;9.314;2022-08-25T12:08:27;57.47;;;3.47;;
1308;SDS011;647;48.840;9.314;2022-08-25T12:11:17;56.90;;;2.73;;
1308;SDS011;647;48.840;9.314;2022-08-25T12:14:07;57.07;;;2.90;;
1308;SDS011;647;48.840;9.314;2022-08-25T12:16:40;57.90;;;2.70;;
1308;SDS011;647;48.840;9.314;2022-08-25T12:24:47;57.90;;;2.70;;
1308;SDS011;647;48.840;9.314;2022-08-25T12:27:19;57.20;;;2.77;;
1308;SDS011;647;48.840;9.314;2022-08-25T12:29:49;58.47;;;2.90;;
1308;SDS011;647;48.840;9.314;2022-08-25T12:32:20;57.30;;;3.27;;
1308;SDS011;647;48.840;9.314;2022-08-25T12:34:53;57.47;;;2.70;;
1308;SDS011;647;48.840;9.314;2022-08-25T12:37:30;58.20;;;2.97;;
1308;SDS011;647;48.840;9.314;2022-08-25T12:40:02;57.70;;;2.80;;
1308;SDS011;647;48.840;9.314;2022-08-25T12:42:30;57.20;;;2.80;;
1308;SDS011;647;48.840;9.314;2022-08-25T12:45:11;57.47;;;2.90;;
1308;SDS011;647;48.840;9.314;2022-08-25T12:47:39;56.70;;;2.50;;
1308;SDS011;647;48.840;9.314;2022-08-25T12:50:29;57.00;;;3.13;;
1308;SDS011;647;48.840;9.314;2022-08-25T12:52:59;57.00;;;2.67;;
1308;SDS011;647;48.840;9.314;2022-08-25T12:55:33;56.70;;;2.57;;
1308;SDS011;647;48.840;9.314;2022-08-25T12:58:01;58.20;;;3.23;;
1308;SDS011;647;48.840;9.314;2022-08-25T13:00:31;56.90;;;2.70;;
1308;SDS011;647;48.840;9.314;2022-08-25T13:03:23;57.23;;;2.50;;
1308;SDS011;647;48.840;9.314;2022-08-25T13:06:04;57.23;;;2.83;;
1308;SDS011;647;48.840;9.314;2022-08-25T13:11:22;57.00;;;2.50;;
1308;SDS011;647;48.840;9.314;2022-08-25T13:13:51;57.30;;;2.90;;
1308;SDS011;647;48.840;9.314;2022-08-25T13:16:22;56.77;;;2.60;;
1308;SDS011;647;48.840;9.314;2022-08-25T13:18:50;56.87;;;2.57;;
1308;SDS011;647;48.840;9.314;2022-08-25T13:21:22;57.67;;;2.63;;
1308;SDS011;647;48.840;9.314;2022-08-25T13:23:50;57.10;;;2.30;;
1308;SDS011;647;48.840;9.314;2022-08-25T13:26:22;56.97;;;2.80;;
1308;SDS011;647;48.840;9.314;2022-08-25T13:28:50;57.17;;;2.60;;
1308;SDS011;647;48.840;9.314;2022-08-25T13:31:19;56.47;;;2.30;;
1308;SDS011;647;48.840;9.314;2022-08-25T13:33:52;56.87;;;2.50;;
1308;SDS011;647;48.840;9.314;2022-08-25T13:36:20;57.47;;;2.77;;
1308;SDS011;647;48.840;9.314;2022-08-25T13:39:12;56.77;;;2.30;;
1308;SDS011;647;48.840;9.314;2022-08-25T13:41:44;56.87;;;2.50;;
1308;SDS011;647;48.840;9.314;2022-08-25T13:44:12;56.63;;;2.50;;
1308;SDS011;647;48.840;9.314;2022-08-25T13:46:39;57.30;;;3.00;;
1308;SDS011;647;48.840;9.314;2022-08-25T13:49:07;57.83;;;2.60;;
1308;SDS011;647;48.840;9.314;2022-08-25T13:51:35;59.00;;;2.77;;
1308;SDS011;647;48.840;9.314;2022-08-25T13:54:04;58.03;;;2.77;;
1308;SDS011;647;48.840;9.314;2022-08-25T13:56:33;57.37;;;3.23;;
1308;SDS011;647;48.840;9.314;2022-08-25T13:59:02;57.37;;;2.77;;
1308;SDS011;647;48.840;9.314;2022-08-25T14:01:31;57.47;;;3.03;;
1308;SDS011;647;48.840;9.314;2022-08-25T14:06:41;57.10;;;2.90;;
1308;SDS011;647;48.840;9.314;2022-08-25T14:09:12;57.07;;;2.83;;
1308;SDS011;647;48.840;9.314;2022-08-25T14:11:41;57.70;;;2.50;;
1308;SDS011;647;48.840;9.314;2022-08-25T14:14:11;56.80;;;2.60;;
1308;SDS011;647;48.840;9.314;2022-08-25T14:16:39;57.10;;;2.60;;
1308;SDS011;647;48.840;9.314;2022-08-25T14:19:12;57.20;;;2.83;;
1308;SDS011;647;48.840;9.314;2022-08-25T14:21:40;57.07;;;2.67;;
1308;SDS011;647;48.840;9.314;2022-08-25T14:24:07;57.10;;;2.93;;
1308;SDS011;647;48.840;9.314;2022-08-25T14:26:35;57.20;;;2.60;;
1308;SDS011;647;48.840;9.314;2022-08-25T14:29:02;56.93;;;3.07;;
1308;SDS011;647;48.840;9.314;2022-08-25T14:31:31;56.80;;;2.73;;
1308;SDS011;647;48.840;9.314;2022-08-25T14:34:00;57.97;;;2.83;;
1308;SDS011;647;48.840;9.314;2022-08-25T14:36:29;57.27;;;2.83;;
1308;SDS011;647;48.840;9.314;2022-08-25T14:38:56;56.80;;;2.33;;
1308;SDS011;647;48.840;9.314;2022-08-25T14:41:23;57.57;;;2.53;;
1308;SDS011;647;48.840;9.314;2022-08-25T14:43:51;57.80;;;3.50;;
1308;SDS011;647;48.840;9.314;2022-08-25T14:46:19;57.47;;;2.67;;
1308;SDS011;647;48.840;9.314;2022-08-25T14:48:49;57.57;;;2.50;;
1308;SDS011;647;48.840;9.314;2022-08-25T14:51:18;57.27;;;3.07;;
1308;SDS011;647;48.840;9.314;2022-08-25T14:53:45;57.77;;;2.77;;
1308;SDS011;647;48.840;9.314;2022-08-25T14:56:13;58.00;;;2.77;;
1308;SDS011;647;48.840;9.314;2022-08-25T14:58:40;57.13;;;2.37;;
1308;SDS011;647;48.840;9.314;2022-08-25T15:01:09;57.47;;;2.90;;
1308;SDS011;647;48.840;9.314;2022-08-25T15:03:38;56.90;;;2.37;;
1308;SDS011;647;48.840;9.314;2022-08-25T15:06:08;57.00;;;2.70;;
1308;SDS011;647;48.840;9.314;2022-08-25T15:08:37;58.10;;;2.67;;
1308;SDS011;647;48.840;9.314;2022-08-25T15:11:21;57.57;;;2.90;;
1308;SDS011;647;48.840;9.314;2022-08-25T15:13:49;57.40;;;2.70;;
1308;SDS011;647;48.840;9.314;2022-08-25T15:16:17;57.07;;;2.40;;
1308;SDS011;647;48.840;9.314;2022-08-25T15:18:46;57.30;;;2.67;;
1308;SDS011;647;48.840;9.314;2022-08-25T15:21:15;57.30;;;2.50;;
1308;SDS011;647;48.840;9.314;2022-08-25T15:23:42;57.80;;;2.80;;
1308;SDS011;647;48.840;9.314;2022-08-25T15:26:09;57.90;;;3.20;;
1308;SDS011;647;48.840;9.314;2022-08-25T15:28:37;57.63;;;2.73;;
1308;SDS011;647;48.840;9.314;2022-08-25T15:31:05;57.63;;;2.77;;
1308;SDS011;647;48.840;9.314;2022-08-25T15:33:32;57.80;;;2.90;;
1308;SDS011;647;48.840;9.314;2022-08-25T15:35:59;58.57;;;3.13;;
1308;SDS011;647;48.840;9.314;2022-08-25T15:38:27;57.87;;;2.70;;
1308;SDS011;647;48.840;9.314;2022-08-25T15:40:54;57.57;;;2.73;;
1308;SDS011;647;48.840;9.314;2022-08-25T15:43:22;57.80;;;2.87;;
1308;SDS011;647;48.840;9.314;2022-08-25T15:45:49;57.47;;;2.50;;